sensor_id;sensor_type;location;lat;lon;timestamp;temperature;humidity
78536;SHT31;67829;51.968;5.684;2023-07-20T00:00:18;21.1;61.3
78536;SHT31;67829;51.968;5.684;2023-07-20T00:02:50;21.1;62.5
78536;SHT31;67829;51.968;5.684;2023-07-20T00:05:19;21.0;62.1
78536;SHT31;67829;51.968;5.684;2023-07-20T00:07:51;21.0;62.1
78536;SHT31;67829;51.968;5.684;2023-07-20T00:10:19;21.0;62.8
78536;SHT31;67829;51.968;5.684;2023-07-20T00:12:48;20.9;63.2
78536;SHT31;67829;51.968;5.684;2023-07-20T00:15:16;20.9;63.0
78536;SHT31;67829;51.968;5.684;2023-07-20T00:17:45;20.9;62.7
78536;SHT31;67829;51.968;5.684;2023-07-20T00:20:15;20.8;63.1
78536;SHT31;67829;51.968;5.684;2023-07-20T00:22:44;20.8;63.3
78536;SHT31;67829;51.968;5.684;2023-07-20T00:25:13;20.7;63.0
78536;SHT31;67829;51.968;5.684;2023-07-20T00:27:41;20.7;63.4
78536;SHT31;67829;51.968;5.684;2023-07-20T00:30:13;20.6;63.4
78536;SHT31;67829;51.968;5.684;2023-07-20T00:32:43;20.6;63.9
78536;SHT31;67829;51.968;5.684;2023-07-20T00:35:11;20.5;64.0
78536;SHT31;67829;51.968;5.684;2023-07-20T00:37:40;20.5;64.3
78536;SHT31;67829;51.968;5.684;2023-07-20T00:40:09;20.5;64.6
78536;SHT31;67829;51.968;5.684;2023-07-20T00:42:38;20.4;64.4
78536;SHT31;67829;51.968;5.684;2023-07-20T00:45:08;20.4;64.6
78536;SHT31;67829;51.968;5.684;2023-07-20T00:47:37;20.4;64.5
78536;SHT31;67829;51.968;5.684;2023-07-20T00:50:06;20.4;65.5
78536;SHT31;67829;51.968;5.684;2023-07-20T00:52:37;20.3;64.8
78536;SHT31;67829;51.968;5.684;2023-07-20T00:55:09;20.3;64.9
78536;SHT31;67829;51.968;5.684;2023-07-20T00:57:38;20.3;64.5
78536;SHT31;67829;51.968;5.684;2023-07-20T01:00:08;20.3;64.3
78536;SHT31;67829;51.968;5.684;2023-07-20T01:02:37;20.2;64.3
78536;SHT31;67829;51.968;5.684;2023-07-20T01:05:06;20.2;64.4
78536;SHT31;67829;51.968;5.684;2023-07-20T01:07:40;20.2;65.0
78536;SHT31;67829;51.968;5.684;2023-07-20T01:10:19;20.2;64.7
78536;SHT31;67829;51.968;5.684;2023-07-20T01:12:52;20.1;64.8
78536;SHT31;67829;51.968;5.684;2023-07-20T01:15:21;20.1;65.1
78536;SHT31;67829;51.968;5.684;2023-07-20T01:17:49;20.1;64.8
78536;SHT31;67829;51.968;5.684;2023-07-20T01:20:20;20.1;65.1
78536;SHT31;67829;51.968;5.684;2023-07-20T01:23:06;20.1;65.2
78536;SHT31;67829;51.968;5.684;2023-07-20T01:26:06;20.0;64.9
78536;SHT31;67829;51.968;5.684;2023-07-20T01:28:53;20.0;65.0
78536;SHT31;67829;51.968;5.684;2023-07-20T01:31:28;19.9;65.2
78536;SHT31;67829;51.968;5.684;2023-07-20T01:34:01;19.9;65.2
78536;SHT31;67829;51.968;5.684;2023-07-20T01:36:34;19.9;65.1
78536;SHT31;67829;51.968;5.684;2023-07-20T01:39:06;19.8;65.8
78536;SHT31;67829;51.968;5.684;2023-07-20T01:41:36;19.8;65.4
78536;SHT31;67829;51.968;5.684;2023-07-20T01:44:05;19.8;65.0
78536;SHT31;67829;51.968;5.684;2023-07-20T01:46:34;19.7;65.3
78536;SHT31;67829;51.968;5.684;2023-07-20T01:49:03;19.7;65.2
78536;SHT31;67829;51.968;5.684;2023-07-20T01:51:31;19.6;65.5
78536;SHT31;67829;51.968;5.684;2023-07-20T01:54:00;19.6;65.2
78536;SHT31;67829;51.968;5.684;2023-07-20T01:56:31;19.6;65.1
78536;SHT31;67829;51.968;5.684;2023-07-20T01:58:59;19.6;65.4
78536;SHT31;67829;51.968;5.684;2023-07-20T02:01:28;19.5;65.5
78536;SHT31;67829;51.968;5.684;2023-07-20T02:03:56;19.5;65.6
78536;SHT31;67829;51.968;5.684;2023-07-20T02:06:25;19.5;65.5
78536;SHT31;67829;51.968;5.684;2023-07-20T02:08:53;19.5;65.2
78536;SHT31;67829;51.968;5.684;2023-07-20T02:11:22;19.5;65.3
78536;SHT31;67829;51.968;5.684;2023-07-20T02:13:50;19.4;65.2
78536;SHT31;67829;51.968;5.684;2023-07-20T02:16:19;19.4;65.3
78536;SHT31;67829;51.968;5.684;2023-07-20T02:18:48;19.4;65.3
78536;SHT31;67829;51.968;5.684;2023-07-20T02:21:16;19.3;65.4
78536;SHT31;67829;51.968;5.684;2023-07-20T02:23:45;19.3;65.7
78536;SHT31;67829;51.968;5.684;2023-07-20T02:26:13;19.3;65.5
78536;SHT31;67829;51.968;5.684;2023-07-20T02:28:42;19.2;65.7
78536;SHT31;67829;51.968;5.684;2023-07-20T02:31:11;19.2;65.8
78536;SHT31;67829;51.968;5.684;2023-07-20T02:33:40;19.1;65.9
78536;SHT31;67829;51.968;5.684;2023-07-20T02:36:08;19.1;66.2
78536;SHT31;67829;51.968;5.684;2023-07-20T02:38:37;19.1;66.6
78536;SHT31;67829;51.968;5.684;2023-07-20T02:41:05;19.0;66.7
78536;SHT31;67829;51.968;5.684;2023-07-20T02:43:34;19.0;66.6
78536;SHT31;67829;51.968;5.684;2023-07-20T02:46:02;19.0;66.5
78536;SHT31;67829;51.968;5.684;2023-07-20T02:48:31;19.0;66.7
78536;SHT31;67829;51.968;5.684;2023-07-20T02:50:59;18.9;66.6
78536;SHT31;67829;51.968;5.684;2023-07-20T02:53:28;18.9;66.6
78536;SHT31;67829;51.968;5.684;2023-07-20T02:55:58;18.9;66.6
78536;SHT31;67829;51.968;5.684;2023-07-20T02:58:29;18.9;66.1
78536;SHT31;67829;51.968;5.684;2023-07-20T03:00:57;18.8;65.8
78536;SHT31;67829;51.968;5.684;2023-07-20T03:03:26;18.8;66.2
78536;SHT31;67829;51.968;5.684;2023-07-20T03:05:55;18.8;66.5
78536;SHT31;67829;51.968;5.684;2023-07-20T03:08:25;18.8;66.5
78536;SHT31;67829;51.968;5.684;2023-07-20T03:10:54;18.7;66.4
78536;SHT31;67829;51.968;5.684;2023-07-20T03:13:22;18.7;66.3
78536;SHT31;67829;51.968;5.684;2023-07-20T03:15:52;18.7;66.3
78536;SHT31;67829;51.968;5.684;2023-07-20T03:18:21;18.6;66.3
78536;SHT31;67829;51.968;5.684;2023-07-20T03:20:49;18.6;66.2
78536;SHT31;67829;51.968;5.684;2023-07-20T03:23:20;18.6;66.3
78536;SHT31;67829;51.968;5.684;2023-07-20T03:25:48;18.6;66.4
78536;SHT31;67829;51.968;5.684;2023-07-20T03:28:20;18.5;66.2
78536;SHT31;67829;51.968;5.684;2023-07-20T03:30:52;18.5;66.3
78536;SHT31;67829;51.968;5.684;2023-07-20T03:33:21;18.5;66.4
78536;SHT31;67829;51.968;5.684;2023-07-20T03:35:50;18.4;66.4
78536;SHT31;67829;51.968;5.684;2023-07-20T03:38:20;18.4;66.3
78536;SHT31;67829;51.968;5.684;2023-07-20T03:40:53;18.4;66.4
78536;SHT31;67829;51.968;5.684;2023-07-20T03:43:22;18.4;66.4
78536;SHT31;67829;51.968;5.684;2023-07-20T03:45:52;18.3;66.1
78536;SHT31;67829;51.968;5.684;2023-07-20T03:48:22;18.3;66.0
78536;SHT31;67829;51.968;5.684;2023-07-20T03:50:53;18.3;66.2
78536;SHT31;67829;51.968;5.684;2023-07-20T03:53:21;18.2;66.3
78536;SHT31;67829;51.968;5.684;2023-07-20T03:55:51;18.2;66.5
78536;SHT31;67829;51.968;5.684;2023-07-20T03:58:21;18.2;66.8
78536;SHT31;67829;51.968;5.684;2023-07-20T04:00:51;18.1;67.2
78536;SHT31;67829;51.968;5.684;2023-07-20T04:03:20;18.1;68.0
78536;SHT31;67829;51.968;5.684;2023-07-20T04:05:49;18.1;68.1
78536;SHT31;67829;51.968;5.684;2023-07-20T04:08:17;18.1;68.3
78536;SHT31;67829;51.968;5.684;2023-07-20T04:10:46;18.1;68.4
78536;SHT31;67829;51.968;5.684;2023-07-20T04:13:17;18.1;68.4
78536;SHT31;67829;51.968;5.684;2023-07-20T04:15:45;18.0;68.5
78536;SHT31;67829;51.968;5.684;2023-07-20T04:18:14;18.0;68.6
78536;SHT31;67829;51.968;5.684;2023-07-20T04:20:43;18.0;68.3
78536;SHT31;67829;51.968;5.684;2023-07-20T04:23:11;18.0;68.6
78536;SHT31;67829;51.968;5.684;2023-07-20T04:25:43;18.0;68.8
78536;SHT31;67829;51.968;5.684;2023-07-20T04:28:12;18.0;69.0
78536;SHT31;67829;51.968;5.684;2023-07-20T04:30:41;18.0;69.2
78536;SHT31;67829;51.968;5.684;2023-07-20T04:33:12;18.1;69.3
78536;SHT31;67829;51.968;5.684;2023-07-20T04:35:49;18.1;69.4
78536;SHT31;67829;51.968;5.684;2023-07-20T04:38:18;18.1;69.7
78536;SHT31;67829;51.968;5.684;2023-07-20T04:40:48;18.2;69.6
78536;SHT31;67829;51.968;5.684;2023-07-20T04:43:18;18.2;69.7
78536;SHT31;67829;51.968;5.684;2023-07-20T04:45:46;18.2;70.1
78536;SHT31;67829;51.968;5.684;2023-07-20T04:48:18;18.3;70.1
78536;SHT31;67829;51.968;5.684;2023-07-20T04:50:47;18.3;69.9
78536;SHT31;67829;51.968;5.684;2023-07-20T04:53:16;18.3;69.9
78536;SHT31;67829;51.968;5.684;2023-07-20T04:55:50;18.4;69.7
78536;SHT31;67829;51.968;5.684;2023-07-20T04:58:22;18.4;69.5
78536;SHT31;67829;51.968;5.684;2023-07-20T05:00:51;18.4;69.1
78536;SHT31;67829;51.968;5.684;2023-07-20T05:03:20;18.5;69.3
78536;SHT31;67829;51.968;5.684;2023-07-20T05:05:49;18.5;69.3
78536;SHT31;67829;51.968;5.684;2023-07-20T05:08:18;18.5;69.6
78536;SHT31;67829;51.968;5.684;2023-07-20T05:10:48;18.5;69.6
78536;SHT31;67829;51.968;5.684;2023-07-20T05:13:17;18.5;69.7
78536;SHT31;67829;51.968;5.684;2023-07-20T05:15:45;18.6;69.4
78536;SHT31;67829;51.968;5.684;2023-07-20T05:18:14;18.6;69.9
78536;SHT31;67829;51.968;5.684;2023-07-20T05:20:47;18.7;69.3
78536;SHT31;67829;51.968;5.684;2023-07-20T05:23:18;18.7;69.0
78536;SHT31;67829;51.968;5.684;2023-07-20T05:25:47;18.8;69.9
78536;SHT31;67829;51.968;5.684;2023-07-20T05:28:16;18.8;68.3
78536;SHT31;67829;51.968;5.684;2023-07-20T05:30:44;18.9;68.3
78536;SHT31;67829;51.968;5.684;2023-07-20T05:33:13;18.9;67.6
78536;SHT31;67829;51.968;5.684;2023-07-20T05:35:42;19.0;66.7
78536;SHT31;67829;51.968;5.684;2023-07-20T05:38:10;19.0;67.0
78536;SHT31;67829;51.968;5.684;2023-07-20T05:40:40;19.0;67.5
78536;SHT31;67829;51.968;5.684;2023-07-20T05:43:09;19.1;68.3
78536;SHT31;67829;51.968;5.684;2023-07-20T05:45:37;19.1;67.7
78536;SHT31;67829;51.968;5.684;2023-07-20T05:48:10;19.1;67.0
78536;SHT31;67829;51.968;5.684;2023-07-20T05:50:41;19.1;67.4
78536;SHT31;67829;51.968;5.684;2023-07-20T05:53:10;19.1;67.2
78536;SHT31;67829;51.968;5.684;2023-07-20T05:55:39;19.1;67.6
78536;SHT31;67829;51.968;5.684;2023-07-20T05:58:08;19.1;68.4
78536;SHT31;67829;51.968;5.684;2023-07-20T06:00:36;19.1;68.1
78536;SHT31;67829;51.968;5.684;2023-07-20T06:03:06;19.2;67.8
78536;SHT31;67829;51.968;5.684;2023-07-20T06:05:35;19.2;68.0
78536;SHT31;67829;51.968;5.684;2023-07-20T06:08:03;19.2;67.8
78536;SHT31;67829;51.968;5.684;2023-07-20T06:10:32;19.2;67.5
78536;SHT31;67829;51.968;5.684;2023-07-20T06:13:01;19.2;67.0
78536;SHT31;67829;51.968;5.684;2023-07-20T06:15:32;19.2;67.3
78536;SHT31;67829;51.968;5.684;2023-07-20T06:18:01;19.2;66.4
78536;SHT31;67829;51.968;5.684;2023-07-20T06:20:30;19.2;66.6
78536;SHT31;67829;51.968;5.684;2023-07-20T06:23:01;19.2;66.6
78536;SHT31;67829;51.968;5.684;2023-07-20T06:25:29;19.2;67.5
78536;SHT31;67829;51.968;5.684;2023-07-20T06:27:58;19.2;67.2
78536;SHT31;67829;51.968;5.684;2023-07-20T06:30:27;19.2;66.9
78536;SHT31;67829;51.968;5.684;2023-07-20T06:32:55;19.2;67.2
78536;SHT31;67829;51.968;5.684;2023-07-20T06:35:24;19.3;67.5
78536;SHT31;67829;51.968;5.684;2023-07-20T06:37:52;19.3;65.6
78536;SHT31;67829;51.968;5.684;2023-07-20T06:40:23;19.3;66.4
78536;SHT31;67829;51.968;5.684;2023-07-20T06:42:52;19.3;65.0
78536;SHT31;67829;51.968;5.684;2023-07-20T06:45:21;19.4;64.2
78536;SHT31;67829;51.968;5.684;2023-07-20T06:47:49;19.4;63.6
78536;SHT31;67829;51.968;5.684;2023-07-20T06:50:20;19.4;65.1
78536;SHT31;67829;51.968;5.684;2023-07-20T06:52:49;19.5;64.9
78536;SHT31;67829;51.968;5.684;2023-07-20T06:55:17;19.5;63.1
78536;SHT31;67829;51.968;5.684;2023-07-20T06:57:46;19.6;61.9
78536;SHT31;67829;51.968;5.684;2023-07-20T07:00:15;19.6;63.2
78536;SHT31;67829;51.968;5.684;2023-07-20T07:02:44;19.7;62.3
78536;SHT31;67829;51.968;5.684;2023-07-20T07:05:12;19.8;61.7
78536;SHT31;67829;51.968;5.684;2023-07-20T07:07:42;19.8;60.8
78536;SHT31;67829;51.968;5.684;2023-07-20T07:10:13;19.9;61.9
78536;SHT31;67829;51.968;5.684;2023-07-20T07:12:42;20.0;63.0
78536;SHT31;67829;51.968;5.684;2023-07-20T07:15:11;20.1;61.7
78536;SHT31;67829;51.968;5.684;2023-07-20T07:17:39;20.2;62.1
78536;SHT31;67829;51.968;5.684;2023-07-20T07:20:10;20.2;61.0
78536;SHT31;67829;51.968;5.684;2023-07-20T07:22:39;20.3;60.8
78536;SHT31;67829;51.968;5.684;2023-07-20T07:25:11;20.4;59.5
78536;SHT31;67829;51.968;5.684;2023-07-20T07:27:39;20.4;58.4
78536;SHT31;67829;51.968;5.684;2023-07-20T07:30:08;20.4;59.4
78536;SHT31;67829;51.968;5.684;2023-07-20T07:32:37;20.4;60.8
78536;SHT31;67829;51.968;5.684;2023-07-20T07:35:06;20.5;60.1
78536;SHT31;67829;51.968;5.684;2023-07-20T07:37:35;20.5;58.9
78536;SHT31;67829;51.968;5.684;2023-07-20T07:40:05;20.5;58.5
78536;SHT31;67829;51.968;5.684;2023-07-20T07:42:36;20.5;60.0
78536;SHT31;67829;51.968;5.684;2023-07-20T07:45:06;20.5;57.7
78536;SHT31;67829;51.968;5.684;2023-07-20T07:47:35;20.5;57.8
78536;SHT31;67829;51.968;5.684;2023-07-20T07:50:04;20.5;58.5
78536;SHT31;67829;51.968;5.684;2023-07-20T07:52:32;20.5;58.5
78536;SHT31;67829;51.968;5.684;2023-07-20T07:55:01;20.5;57.8
78536;SHT31;67829;51.968;5.684;2023-07-20T07:57:30;20.5;56.8
78536;SHT31;67829;51.968;5.684;2023-07-20T07:59:59;20.5;56.6
78536;SHT31;67829;51.968;5.684;2023-07-20T08:02:27;20.6;57.7
78536;SHT31;67829;51.968;5.684;2023-07-20T08:04:56;20.6;57.9
78536;SHT31;67829;51.968;5.684;2023-07-20T08:07:24;20.6;53.1
78536;SHT31;67829;51.968;5.684;2023-07-20T08:09:53;20.7;55.8
78536;SHT31;67829;51.968;5.684;2023-07-20T08:12:21;20.7;54.8
78536;SHT31;67829;51.968;5.684;2023-07-20T08:14:51;20.8;53.6
78536;SHT31;67829;51.968;5.684;2023-07-20T08:17:20;20.8;54.1
78536;SHT31;67829;51.968;5.684;2023-07-20T08:19:48;20.9;54.2
78536;SHT31;67829;51.968;5.684;2023-07-20T08:22:17;20.9;55.5
78536;SHT31;67829;51.968;5.684;2023-07-20T08:24:46;21.0;53.1
78536;SHT31;67829;51.968;5.684;2023-07-20T08:27:14;21.1;53.1
78536;SHT31;67829;51.968;5.684;2023-07-20T08:29:43;21.1;51.6
78536;SHT31;67829;51.968;5.684;2023-07-20T08:32:12;21.1;53.7
78536;SHT31;67829;51.968;5.684;2023-07-20T08:34:42;21.2;53.1
78536;SHT31;67829;51.968;5.684;2023-07-20T08:37:10;21.2;52.2
78536;SHT31;67829;51.968;5.684;2023-07-20T08:39:39;21.3;50.8
78536;SHT31;67829;51.968;5.684;2023-07-20T08:42:09;21.4;52.0
78536;SHT31;67829;51.968;5.684;2023-07-20T08:44:39;21.5;50.7
78536;SHT31;67829;51.968;5.684;2023-07-20T08:47:12;21.6;51.5
78536;SHT31;67829;51.968;5.684;2023-07-20T08:49:42;21.6;51.6
78536;SHT31;67829;51.968;5.684;2023-07-20T08:52:11;21.7;53.9
78536;SHT31;67829;51.968;5.684;2023-07-20T08:54:40;21.8;53.1
78536;SHT31;67829;51.968;5.684;2023-07-20T08:57:13;21.9;54.2
78536;SHT31;67829;51.968;5.684;2023-07-20T08:59:43;22.0;51.3
78536;SHT31;67829;51.968;5.684;2023-07-20T09:02:16;22.1;51.7
78536;SHT31;67829;51.968;5.684;2023-07-20T09:04:48;22.2;51.4
78536;SHT31;67829;51.968;5.684;2023-07-20T09:07:17;22.2;50.5
78536;SHT31;67829;51.968;5.684;2023-07-20T09:09:46;22.2;50.3
78536;SHT31;67829;51.968;5.684;2023-07-20T09:12:15;22.3;49.1
78536;SHT31;67829;51.968;5.684;2023-07-20T09:14:45;22.3;50.3
78536;SHT31;67829;51.968;5.684;2023-07-20T09:17:16;22.3;50.2
78536;SHT31;67829;51.968;5.684;2023-07-20T09:19:48;22.3;51.4
78536;SHT31;67829;51.968;5.684;2023-07-20T09:22:19;22.3;49.7
78536;SHT31;67829;51.968;5.684;2023-07-20T09:24:47;22.4;48.6
78536;SHT31;67829;51.968;5.684;2023-07-20T09:27:16;22.5;49.2
78536;SHT31;67829;51.968;5.684;2023-07-20T09:29:52;22.5;50.0
78536;SHT31;67829;51.968;5.684;2023-07-20T09:32:21;22.6;50.4
78536;SHT31;67829;51.968;5.684;2023-07-20T09:34:51;22.8;48.7
78536;SHT31;67829;51.968;5.684;2023-07-20T09:37:22;22.9;48.2
78536;SHT31;67829;51.968;5.684;2023-07-20T09:39:52;22.9;48.7
78536;SHT31;67829;51.968;5.684;2023-07-20T09:42:21;23.0;49.1
78536;SHT31;67829;51.968;5.684;2023-07-20T09:44:51;23.0;49.7
78536;SHT31;67829;51.968;5.684;2023-07-20T09:47:24;23.1;47.5
78536;SHT31;67829;51.968;5.684;2023-07-20T09:49:58;23.1;49.2
78536;SHT31;67829;51.968;5.684;2023-07-20T09:52:29;23.1;50.0
78536;SHT31;67829;51.968;5.684;2023-07-20T09:54:58;23.2;47.0
78536;SHT31;67829;51.968;5.684;2023-07-20T09:57:28;23.2;47.4
78536;SHT31;67829;51.968;5.684;2023-07-20T10:00:00;23.3;49.4
78536;SHT31;67829;51.968;5.684;2023-07-20T10:02:33;23.3;48.3
78536;SHT31;67829;51.968;5.684;2023-07-20T10:05:04;23.4;47.2
78536;SHT31;67829;51.968;5.684;2023-07-20T10:07:36;23.5;44.6
78536;SHT31;67829;51.968;5.684;2023-07-20T10:10:09;23.6;47.0
78536;SHT31;67829;51.968;5.684;2023-07-20T10:12:39;23.6;48.8
78536;SHT31;67829;51.968;5.684;2023-07-20T10:15:19;23.7;47.2
78536;SHT31;67829;51.968;5.684;2023-07-20T10:17:59;23.7;44.5
78536;SHT31;67829;51.968;5.684;2023-07-20T10:20:32;23.8;44.0
78536;SHT31;67829;51.968;5.684;2023-07-20T10:23:01;23.8;45.0
78536;SHT31;67829;51.968;5.684;2023-07-20T10:25:31;23.9;45.0
78536;SHT31;67829;51.968;5.684;2023-07-20T10:28:04;23.9;46.0
78536;SHT31;67829;51.968;5.684;2023-07-20T10:30:34;23.9;45.8
78536;SHT31;67829;51.968;5.684;2023-07-20T10:33:04;24.0;45.0
78536;SHT31;67829;51.968;5.684;2023-07-20T10:35:52;24.1;44.6
78536;SHT31;67829;51.968;5.684;2023-07-20T10:38:41;24.1;45.5
78536;SHT31;67829;51.968;5.684;2023-07-20T10:41:20;24.2;45.8
78536;SHT31;67829;51.968;5.684;2023-07-20T10:43:51;24.3;45.4
78536;SHT31;67829;51.968;5.684;2023-07-20T10:46:45;24.4;45.4
78536;SHT31;67829;51.968;5.684;2023-07-20T10:49:14;24.4;46.6
78536;SHT31;67829;51.968;5.684;2023-07-20T10:51:47;24.5;45.0
78536;SHT31;67829;51.968;5.684;2023-07-20T10:54:35;24.6;44.6
78536;SHT31;67829;51.968;5.684;2023-07-20T10:57:24;24.7;43.7
78536;SHT31;67829;51.968;5.684;2023-07-20T11:00:10;24.7;43.7
78536;SHT31;67829;51.968;5.684;2023-07-20T11:02:44;24.8;44.5
78536;SHT31;67829;51.968;5.684;2023-07-20T11:05:35;24.8;42.5
78536;SHT31;67829;51.968;5.684;2023-07-20T11:08:10;24.9;43.7
78536;SHT31;67829;51.968;5.684;2023-07-20T11:10:39;24.9;44.4
78536;SHT31;67829;51.968;5.684;2023-07-20T11:13:22;24.9;43.1
78536;SHT31;67829;51.968;5.684;2023-07-20T11:16:04;24.9;42.5
78536;SHT31;67829;51.968;5.684;2023-07-20T11:18:35;24.9;43.8
78536;SHT31;67829;51.968;5.684;2023-07-20T11:21:06;24.9;43.3
78536;SHT31;67829;51.968;5.684;2023-07-20T11:23:37;24.9;42.7
78536;SHT31;67829;51.968;5.684;2023-07-20T11:26:06;24.9;44.9
78536;SHT31;67829;51.968;5.684;2023-07-20T11:28:38;24.9;44.2
78536;SHT31;67829;51.968;5.684;2023-07-20T11:31:06;25.0;43.1
78536;SHT31;67829;51.968;5.684;2023-07-20T11:33:35;25.0;42.5
78536;SHT31;67829;51.968;5.684;2023-07-20T11:36:04;25.0;40.2
78536;SHT31;67829;51.968;5.684;2023-07-20T11:38:33;25.1;41.6
78536;SHT31;67829;51.968;5.684;2023-07-20T11:41:02;25.1;40.9
78536;SHT31;67829;51.968;5.684;2023-07-20T11:43:31;25.1;44.0
78536;SHT31;67829;51.968;5.684;2023-07-20T11:46:00;25.1;42.6
78536;SHT31;67829;51.968;5.684;2023-07-20T11:48:30;25.1;42.5
78536;SHT31;67829;51.968;5.684;2023-07-20T11:50:59;25.1;39.4
78536;SHT31;67829;51.968;5.684;2023-07-20T11:53:28;25.2;40.9
78536;SHT31;67829;51.968;5.684;2023-07-20T11:55:59;25.2;42.7
78536;SHT31;67829;51.968;5.684;2023-07-20T11:58:28;25.2;42.9
78536;SHT31;67829;51.968;5.684;2023-07-20T12:00:57;25.2;43.4
78536;SHT31;67829;51.968;5.684;2023-07-20T12:03:28;25.2;43.3
78536;SHT31;67829;51.968;5.684;2023-07-20T12:06:08;25.2;43.4
78536;SHT31;67829;51.968;5.684;2023-07-20T12:08:38;25.3;42.2
78536;SHT31;67829;51.968;5.684;2023-07-20T12:11:07;25.3;41.2
78536;SHT31;67829;51.968;5.684;2023-07-20T12:13:43;25.4;40.6
78536;SHT31;67829;51.968;5.684;2023-07-20T12:16:14;25.4;38.3
78536;SHT31;67829;51.968;5.684;2023-07-20T12:18:44;25.4;41.2
78536;SHT31;67829;51.968;5.684;2023-07-20T12:21:12;25.5;40.6
78536;SHT31;67829;51.968;5.684;2023-07-20T12:23:42;25.5;40.3
78536;SHT31;67829;51.968;5.684;2023-07-20T12:26:10;25.5;39.9
78536;SHT31;67829;51.968;5.684;2023-07-20T12:28:42;25.6;41.9
78536;SHT31;67829;51.968;5.684;2023-07-20T12:31:11;25.6;40.8
78536;SHT31;67829;51.968;5.684;2023-07-20T12:33:42;25.6;40.0
78536;SHT31;67829;51.968;5.684;2023-07-20T12:36:10;25.7;39.9
78536;SHT31;67829;51.968;5.684;2023-07-20T12:38:39;25.7;39.7
78536;SHT31;67829;51.968;5.684;2023-07-20T12:41:10;25.7;39.0
78536;SHT31;67829;51.968;5.684;2023-07-20T12:43:41;25.8;41.1
78536;SHT31;67829;51.968;5.684;2023-07-20T12:46:12;25.8;40.4
78536;SHT31;67829;51.968;5.684;2023-07-20T12:48:41;25.9;39.9
78536;SHT31;67829;51.968;5.684;2023-07-20T12:51:11;26.0;38.7
78536;SHT31;67829;51.968;5.684;2023-07-20T12:53:39;26.0;38.8
78536;SHT31;67829;51.968;5.684;2023-07-20T12:56:08;26.1;37.9
78536;SHT31;67829;51.968;5.684;2023-07-20T12:58:36;26.1;38.2
78536;SHT31;67829;51.968;5.684;2023-07-20T13:01:05;26.1;38.7
78536;SHT31;67829;51.968;5.684;2023-07-20T13:03:34;26.2;39.3
78536;SHT31;67829;51.968;5.684;2023-07-20T13:06:02;26.2;38.5
78536;SHT31;67829;51.968;5.684;2023-07-20T13:08:31;26.3;37.7
78536;SHT31;67829;51.968;5.684;2023-07-20T13:11:00;26.4;37.4
78536;SHT31;67829;51.968;5.684;2023-07-20T13:13:29;26.4;37.3
78536;SHT31;67829;51.968;5.684;2023-07-20T13:15:57;26.4;37.6
78536;SHT31;67829;51.968;5.684;2023-07-20T13:18:26;26.4;37.8
78536;SHT31;67829;51.968;5.684;2023-07-20T13:20:55;26.5;38.0
78536;SHT31;67829;51.968;5.684;2023-07-20T13:23:24;26.5;39.4
78536;SHT31;67829;51.968;5.684;2023-07-20T13:25:53;26.5;38.0
78536;SHT31;67829;51.968;5.684;2023-07-20T13:28:21;26.5;37.9
78536;SHT31;67829;51.968;5.684;2023-07-20T13:30:50;26.6;38.9
78536;SHT31;67829;51.968;5.684;2023-07-20T13:33:18;26.6;35.5
78536;SHT31;67829;51.968;5.684;2023-07-20T13:35:47;26.6;36.8
78536;SHT31;67829;51.968;5.684;2023-07-20T13:38:16;26.5;35.6
78536;SHT31;67829;51.968;5.684;2023-07-20T13:40:45;26.5;36.4
78536;SHT31;67829;51.968;5.684;2023-07-20T13:43:14;26.5;37.2
78536;SHT31;67829;51.968;5.684;2023-07-20T13:45:42;26.5;36.3
78536;SHT31;67829;51.968;5.684;2023-07-20T13:48:11;26.5;37.3
78536;SHT31;67829;51.968;5.684;2023-07-20T13:50:40;26.4;37.3
78536;SHT31;67829;51.968;5.684;2023-07-20T13:53:09;26.4;36.6
78536;SHT31;67829;51.968;5.684;2023-07-20T13:55:38;26.4;36.7
78536;SHT31;67829;51.968;5.684;2023-07-20T13:58:07;26.4;37.2
78536;SHT31;67829;51.968;5.684;2023-07-20T14:00:36;26.4;39.7
78536;SHT31;67829;51.968;5.684;2023-07-20T14:03:05;26.5;38.2
78536;SHT31;67829;51.968;5.684;2023-07-20T14:05:34;26.5;39.3
78536;SHT31;67829;51.968;5.684;2023-07-20T14:08:03;26.6;37.7
78536;SHT31;67829;51.968;5.684;2023-07-20T14:10:31;26.7;38.0
78536;SHT31;67829;51.968;5.684;2023-07-20T14:13:00;26.7;37.9
78536;SHT31;67829;51.968;5.684;2023-07-20T14:15:29;26.8;35.5
78536;SHT31;67829;51.968;5.684;2023-07-20T14:17:57;26.8;35.5
78536;SHT31;67829;51.968;5.684;2023-07-20T14:20:26;26.8;35.2
78536;SHT31;67829;51.968;5.684;2023-07-20T14:22:54;26.8;35.2
78536;SHT31;67829;51.968;5.684;2023-07-20T14:25:23;26.7;36.9
78536;SHT31;67829;51.968;5.684;2023-07-20T14:27:51;26.7;35.3
78536;SHT31;67829;51.968;5.684;2023-07-20T14:30:20;26.7;35.3
78536;SHT31;67829;51.968;5.684;2023-07-20T14:32:49;26.6;35.5
78536;SHT31;67829;51.968;5.684;2023-07-20T14:35:17;26.5;36.5
78536;SHT31;67829;51.968;5.684;2023-07-20T14:37:46;26.5;36.3
78536;SHT31;67829;51.968;5.684;2023-07-20T14:40:17;26.4;35.5
78536;SHT31;67829;51.968;5.684;2023-07-20T14:42:46;26.4;36.9
78536;SHT31;67829;51.968;5.684;2023-07-20T14:45:15;26.4;36.1
78536;SHT31;67829;51.968;5.684;2023-07-20T14:47:43;26.4;36.3
78536;SHT31;67829;51.968;5.684;2023-07-20T14:50:14;26.4;36.6
78536;SHT31;67829;51.968;5.684;2023-07-20T14:52:43;26.4;36.8
78536;SHT31;67829;51.968;5.684;2023-07-20T14:55:11;26.4;36.9
78536;SHT31;67829;51.968;5.684;2023-07-20T14:57:40;26.4;36.1
78536;SHT31;67829;51.968;5.684;2023-07-20T15:00:09;26.4;37.3
78536;SHT31;67829;51.968;5.684;2023-07-20T15:02:39;26.4;36.9
78536;SHT31;67829;51.968;5.684;2023-07-20T15:05:09;26.4;37.2
78536;SHT31;67829;51.968;5.684;2023-07-20T15:07:38;26.5;37.1
78536;SHT31;67829;51.968;5.684;2023-07-20T15:10:08;26.5;37.3
78536;SHT31;67829;51.968;5.684;2023-07-20T15:12:36;26.5;36.9
78536;SHT31;67829;51.968;5.684;2023-07-20T15:15:07;26.5;36.6
78536;SHT31;67829;51.968;5.684;2023-07-20T15:17:37;26.5;37.0
78536;SHT31;67829;51.968;5.684;2023-07-20T15:20:09;26.5;37.4
78536;SHT31;67829;51.968;5.684;2023-07-20T15:22:38;26.6;36.7
78536;SHT31;67829;51.968;5.684;2023-07-20T15:25:08;26.6;36.3
78536;SHT31;67829;51.968;5.684;2023-07-20T15:27:40;26.6;35.3
78536;SHT31;67829;51.968;5.684;2023-07-20T15:30:10;26.6;36.3
78536;SHT31;67829;51.968;5.684;2023-07-20T15:32:41;26.6;35.2
78536;SHT31;67829;51.968;5.684;2023-07-20T15:35:10;26.6;35.5
78536;SHT31;67829;51.968;5.684;2023-07-20T15:37:38;26.6;34.5
78536;SHT31;67829;51.968;5.684;2023-07-20T15:40:08;26.6;34.8
78536;SHT31;67829;51.968;5.684;2023-07-20T15:42:37;26.6;35.3
78536;SHT31;67829;51.968;5.684;2023-07-20T15:45:07;26.6;35.7
78536;SHT31;67829;51.968;5.684;2023-07-20T15:47:38;26.6;33.5
78536;SHT31;67829;51.968;5.684;2023-07-20T15:50:07;26.6;35.6
78536;SHT31;67829;51.968;5.684;2023-07-20T15:52:36;26.6;35.3
78536;SHT31;67829;51.968;5.684;2023-07-20T15:55:06;26.6;35.1
78536;SHT31;67829;51.968;5.684;2023-07-20T15:57:35;26.6;34.3
78536;SHT31;67829;51.968;5.684;2023-07-20T16:00:04;26.6;35.2
78536;SHT31;67829;51.968;5.684;2023-07-20T16:02:35;26.6;33.6
78536;SHT31;67829;51.968;5.684;2023-07-20T16:05:04;26.6;33.7
78536;SHT31;67829;51.968;5.684;2023-07-20T16:07:33;26.5;33.7
78536;SHT31;67829;51.968;5.684;2023-07-20T16:10:02;26.5;35.0
78536;SHT31;67829;51.968;5.684;2023-07-20T16:12:32;26.5;35.1
78536;SHT31;67829;51.968;5.684;2023-07-20T16:15:02;26.5;35.2
78536;SHT31;67829;51.968;5.684;2023-07-20T16:17:31;26.4;34.4
78536;SHT31;67829;51.968;5.684;2023-07-20T16:20:00;26.4;35.4